createdAt,value
2022-09-10T00:01:39.960Z,17.60
2022-09-10T00:04:14.889Z,17.40
2022-09-10T00:06:44.298Z,17.40
2022-09-10T00:09:14.026Z,17.50
2022-09-10T00:11:43.118Z,17.40
2022-09-10T00:14:15.594Z,17.40
2022-09-10T00:16:44.008Z,17.40
2022-09-10T00:19:14.941Z,17.30
2022-09-10T00:21:44.360Z,17.20
2022-09-10T00:24:12.432Z,17.20
2022-09-10T00:26:41.995Z,17.90
2022-09-10T00:29:17.554Z,18.40
2022-09-10T00:31:46.195Z,18.40
2022-09-10T00:34:18.017Z,18.50
2022-09-10T00:36:46.898Z,18.50
2022-09-10T00:39:17.039Z,18.50
2022-09-10T00:41:47.971Z,18.50
2022-09-10T00:44:56.808Z,18.50
2022-09-10T00:47:29.951Z,18.50
2022-09-10T00:50:06.089Z,18.50
2022-09-10T00:52:39.376Z,18.50
2022-09-10T00:55:12.782Z,18.50
2022-09-10T00:57:42.489Z,18.50
2022-09-10T01:00:14.301Z,18.50
2022-09-10T01:02:43.318Z,18.50
2022-09-10T01:05:14.140Z,18.40
2022-09-10T01:07:42.928Z,18.30
2022-09-10T01:10:15.627Z,18.40
2022-09-10T01:13:15.118Z,18.40
2022-09-10T01:15:53.458Z,18.40
2022-09-10T01:18:33.496Z,18.50
2022-09-10T01:21:24.941Z,18.50
2022-09-10T01:24:30.138Z,18.40
2022-09-10T01:27:32.266Z,18.40
2022-09-10T01:30:07.337Z,18.40
2022-09-10T01:32:52.110Z,18.40
2022-09-10T01:35:27.957Z,18.40
2022-09-10T01:37:59.828Z,18.40
2022-09-10T01:40:31.027Z,18.50
2022-09-10T01:43:05.895Z,18.40
2022-09-10T01:45:47.300Z,18.20
2022-09-10T01:48:30.107Z,18.10
2022-09-10T01:51:09.093Z,18.00
2022-09-10T01:54:00.313Z,18.00
2022-09-10T01:56:39.368Z,18.10
2022-09-10T01:59:15.956Z,18.10
2022-09-10T02:01:51.599Z,18.00
2022-09-10T02:04:22.688Z,17.90
2022-09-10T02:06:52.649Z,17.90
2022-09-10T02:09:21.243Z,18.00
2022-09-10T02:11:51.581Z,17.90
2022-09-10T02:14:38.446Z,18.00
2022-09-10T02:17:33.684Z,18.10
2022-09-10T02:20:04.104Z,18.10
2022-09-10T02:22:36.366Z,18.20
2022-09-10T02:25:09.928Z,18.20
2022-09-10T02:27:40.393Z,18.20
2022-09-10T02:30:10.159Z,18.20
2022-09-10T02:32:40.953Z,18.20
2022-09-10T02:35:09.985Z,18.20
2022-09-10T02:37:38.511Z,18.20
2022-09-10T02:40:07.968Z,18.20
2022-09-10T02:42:36.369Z,18.20
2022-09-10T02:45:05.066Z,18.20
2022-09-10T02:47:33.271Z,18.20
2022-09-10T02:50:03.230Z,18.20
2022-09-10T02:52:31.741Z,18.20
2022-09-10T02:55:00.158Z,18.20
2022-09-10T02:57:28.969Z,18.10
2022-09-10T02:59:57.362Z,18.10
2022-09-10T03:02:25.784Z,18.10
2022-09-10T03:04:56.516Z,18.10
2022-09-10T03:07:28.274Z,18.00
2022-09-10T03:09:56.457Z,17.90
2022-09-10T03:12:24.756Z,17.90
2022-09-10T03:14:53.447Z,17.90
2022-09-10T03:17:24.111Z,17.90
2022-09-10T03:19:52.520Z,17.90
2022-09-10T03:22:22.911Z,17.90
2022-09-10T03:24:52.571Z,17.90
2022-09-10T03:27:20.913Z,17.90
2022-09-10T03:29:49.245Z,17.90
2022-09-10T03:32:17.467Z,17.90
2022-09-10T03:34:45.634Z,17.90
2022-09-10T03:37:14.208Z,17.90
2022-09-10T03:39:43.513Z,17.80
2022-09-10T03:42:14.224Z,17.80
2022-09-10T03:44:42.554Z,17.70
2022-09-10T03:47:11.790Z,17.70
2022-09-10T03:49:40.695Z,17.70
2022-09-10T03:52:12.614Z,17.70
2022-09-10T03:54:42.708Z,17.70
2022-09-10T03:57:15.155Z,17.70
2022-09-10T03:59:43.484Z,17.70
2022-09-10T04:02:13.340Z,17.70
2022-09-10T04:04:42.903Z,17.60
2022-09-10T04:07:11.987Z,17.60
2022-09-10T04:09:40.572Z,17.70
2022-09-10T04:12:11.573Z,17.60
2022-09-10T04:14:43.611Z,17.60
2022-09-10T04:17:16.250Z,17.60
2022-09-10T04:19:45.438Z,17.60
2022-09-10T04:22:13.725Z,17.70
2022-09-10T04:24:44.669Z,17.70
2022-09-10T04:27:12.960Z,17.70
2022-09-10T04:29:43.134Z,17.70
2022-09-10T04:32:11.515Z,17.70
2022-09-10T04:34:39.675Z,17.70
2022-09-10T04:37:08.211Z,17.80
2022-09-10T04:39:36.612Z,17.70
2022-09-10T04:42:06.901Z,17.70
2022-09-10T04:44:35.320Z,17.70
2022-09-10T04:47:06.296Z,17.80
2022-09-10T04:49:35.147Z,17.10
2022-09-10T04:52:03.914Z,17.40
2022-09-10T04:54:33.638Z,17.70
2022-09-10T04:57:04.012Z,17.80
2022-09-10T04:59:32.424Z,17.90
2022-09-10T05:02:00.726Z,17.90
2022-09-10T05:04:30.368Z,18.00
2022-09-10T05:07:01.548Z,18.00
2022-09-10T05:09:31.726Z,18.10
2022-09-10T05:12:02.820Z,18.30
2022-09-10T05:14:31.519Z,18.20
2022-09-10T05:16:59.974Z,18.30
2022-09-10T05:19:33.380Z,18.40
2022-09-10T05:22:06.081Z,17.80
2022-09-10T05:24:35.354Z,18.20
2022-09-10T05:27:05.740Z,18.40
2022-09-10T05:29:36.130Z,18.50
2022-09-10T05:32:04.652Z,18.50
2022-09-10T05:34:34.372Z,18.50
2022-09-10T05:37:05.883Z,18.60
2022-09-10T05:39:34.945Z,18.70
2022-09-10T05:42:03.937Z,18.70
2022-09-10T05:44:32.492Z,18.80
2022-09-10T05:47:01.380Z,18.80
2022-09-10T05:49:30.505Z,18.80
2022-09-10T05:52:00.206Z,18.90
2022-09-10T05:54:28.414Z,18.90
2022-09-10T05:56:58.742Z,19.00
2022-09-10T05:59:27.002Z,18.90
2022-09-10T06:01:55.785Z,19.00
2022-09-10T06:04:25.548Z,19.00
2022-09-10T06:06:56.337Z,19.00
2022-09-10T06:09:28.688Z,19.00
2022-09-10T06:12:06.690Z,19.10
2022-09-10T06:14:36.170Z,19.10
2022-09-10T06:17:04.490Z,19.30
2022-09-10T06:19:33.947Z,18.80
2022-09-10T06:22:02.166Z,19.40
2022-09-10T06:24:35.443Z,19.90
2022-09-10T06:27:06.958Z,20.10
2022-09-10T06:29:36.865Z,20.10
2022-09-10T06:32:06.321Z,20.20
2022-09-10T06:34:37.174Z,20.20
2022-09-10T06:37:06.974Z,20.30
2022-09-10T06:39:39.593Z,20.20
2022-09-10T06:42:08.856Z,20.20
2022-09-10T06:45:07.141Z,20.20
2022-09-10T06:50:53.481Z,20.10
2022-09-10T06:53:25.509Z,20.10
2022-09-10T06:55:56.622Z,20.20
2022-09-10T06:58:25.666Z,20.30
2022-09-10T07:00:54.063Z,20.60
2022-09-10T07:03:24.216Z,21.10
2022-09-10T07:05:55.729Z,21.30
2022-09-10T07:08:27.866Z,21.40
2022-09-10T07:11:03.386Z,21.50
2022-09-10T07:13:32.480Z,21.80
2022-09-10T07:16:01.840Z,22.00
2022-09-10T07:18:32.023Z,22.30
2022-09-10T07:21:07.759Z,23.00
2022-09-10T07:23:36.081Z,23.70
2022-09-10T07:26:06.815Z,24.30
2022-09-10T07:28:40.507Z,24.90
2022-09-10T07:31:13.938Z,25.40
2022-09-10T07:33:43.205Z,25.70
2022-09-10T07:36:12.470Z,25.60
2022-09-10T07:38:43.138Z,25.40
2022-09-10T07:41:14.464Z,25.10
2022-09-10T07:43:49.536Z,25.00
2022-09-10T07:46:24.857Z,25.10
2022-09-10T07:48:59.872Z,25.10
2022-09-10T07:51:29.917Z,25.10
2022-09-10T07:54:04.398Z,25.00
2022-09-10T07:56:40.914Z,24.90
2022-09-10T07:59:11.595Z,24.90
2022-09-10T08:01:47.760Z,24.90
2022-09-10T08:04:17.991Z,25.00
2022-09-10T08:06:46.480Z,25.10
2022-09-10T08:09:15.712Z,25.50
2022-09-10T08:11:52.850Z,26.00
2022-09-10T08:14:24.183Z,26.50
2022-09-10T08:16:54.945Z,26.60
2022-09-10T08:19:25.010Z,26.80
2022-09-10T08:21:53.935Z,27.10
2022-09-10T08:24:28.900Z,27.20
2022-09-10T08:26:58.368Z,27.00
2022-09-10T08:29:28.757Z,26.80
2022-09-10T08:31:59.414Z,27.00
2022-09-10T08:34:31.518Z,27.00
2022-09-10T08:37:09.171Z,26.90
2022-09-10T08:39:38.546Z,26.80
2022-09-10T08:42:13.012Z,26.80
2022-09-10T08:44:49.097Z,26.70
2022-09-10T08:47:26.123Z,26.50
2022-09-10T08:49:59.088Z,26.40
2022-09-10T08:52:31.252Z,26.50
2022-09-10T08:55:03.730Z,26.60
2022-09-10T08:57:34.947Z,26.70
2022-09-10T09:00:03.758Z,26.60
2022-09-10T09:02:49.278Z,26.50
2022-09-10T09:05:21.722Z,26.50
2022-09-10T09:07:53.179Z,26.40
2022-09-10T09:10:27.911Z,26.50
2022-09-10T09:13:17.948Z,26.70
2022-09-10T09:15:51.794Z,26.90
2022-09-10T09:18:25.623Z,27.20
2022-09-10T09:20:56.209Z,27.50
2022-09-10T09:23:26.318Z,27.60
2022-09-10T09:25:57.522Z,27.50
2022-09-10T09:28:33.782Z,27.30
2022-09-10T09:31:09.184Z,27.10
2022-09-10T09:33:38.411Z,26.80
2022-09-10T09:36:14.535Z,26.60
2022-09-10T09:38:44.173Z,26.50
2022-09-10T09:41:17.816Z,26.40
2022-09-10T09:43:52.425Z,26.50
2022-09-10T09:46:22.999Z,26.70
2022-09-10T09:48:55.550Z,27.00
2022-09-10T09:51:27.059Z,27.20
2022-09-10T09:54:25.809Z,27.20
2022-09-10T09:56:47.628Z,27.20
2022-09-10T09:59:26.569Z,27.20
2022-09-10T10:01:55.229Z,27.20
2022-09-10T10:04:25.212Z,27.30
2022-09-10T10:06:57.414Z,27.40
2022-09-10T10:09:27.319Z,27.60
2022-09-10T10:11:56.470Z,27.60
2022-09-10T10:14:36.314Z,27.60
2022-09-10T10:17:05.663Z,27.60
2022-09-10T10:19:35.032Z,27.60
2022-09-10T10:22:22.258Z,27.60
2022-09-10T10:24:51.592Z,27.70
2022-09-10T10:27:22.094Z,27.80
2022-09-10T10:29:59.431Z,27.90
2022-09-10T10:32:35.080Z,28.10
2022-09-10T10:35:14.056Z,28.20
2022-09-10T10:37:45.604Z,28.30
2022-09-10T10:40:19.207Z,28.30
2022-09-10T10:42:52.385Z,28.40
2022-09-10T10:45:32.196Z,28.40
2022-09-10T10:48:04.475Z,28.50
2022-09-10T10:50:38.051Z,28.40
2022-09-10T10:53:16.544Z,28.50
2022-09-10T10:55:45.709Z,28.50
2022-09-10T10:58:39.126Z,28.60
2022-09-10T11:01:14.204Z,28.70
2022-09-10T11:03:48.891Z,29.10
2022-09-10T11:06:21.453Z,29.30
2022-09-10T11:08:55.324Z,28.50
2022-09-10T11:11:31.348Z,28.10
2022-09-10T11:14:06.446Z,28.00
2022-09-10T11:16:42.138Z,28.10
2022-09-10T11:19:17.293Z,27.90
2022-09-10T11:21:53.023Z,28.00
2022-09-10T11:24:26.999Z,27.90
2022-09-10T11:27:01.812Z,27.70
2022-09-10T11:29:41.047Z,27.60
2022-09-10T11:32:21.571Z,27.70
2022-09-10T11:34:59.055Z,27.60
2022-09-10T11:37:35.468Z,26.80
2022-09-10T11:40:14.271Z,26.30
2022-09-10T11:42:46.028Z,26.10
2022-09-10T11:45:22.133Z,25.90
2022-09-10T11:47:57.288Z,25.70
2022-09-10T11:50:34.730Z,25.40
2022-09-10T11:53:07.436Z,25.30
2022-09-10T11:55:55.250Z,25.10
2022-09-10T11:58:32.091Z,24.90
2022-09-10T12:01:13.419Z,24.70
2022-09-10T12:04:15.038Z,24.80
2022-09-10T12:06:55.018Z,24.70
2022-09-10T12:09:30.021Z,24.70
2022-09-10T12:12:07.181Z,24.70
2022-09-10T12:14:40.986Z,24.80
2022-09-10T12:17:15.920Z,24.90
2022-09-10T12:19:50.474Z,25.00
2022-09-10T12:22:22.913Z,25.10
2022-09-10T12:24:56.450Z,25.10
2022-09-10T12:27:46.225Z,25.20
2022-09-10T12:30:59.236Z,25.10
2022-09-10T12:33:59.445Z,25.10
2022-09-10T12:37:17.168Z,25.10
2022-09-10T12:39:47.099Z,24.90
2022-09-10T12:42:33.703Z,24.60
2022-09-10T12:45:02.086Z,24.50
2022-09-10T12:47:42.297Z,24.50
2022-09-10T12:50:37.253Z,24.40
2022-09-10T12:53:51.703Z,24.40
2022-09-10T12:56:40.759Z,24.40
2022-09-10T12:59:28.640Z,24.40
2022-09-10T13:01:57.921Z,24.20
2022-09-10T13:04:30.795Z,24.10
2022-09-10T13:07:01.918Z,24.10
2022-09-10T13:09:33.545Z,24.10
2022-09-10T13:12:08.353Z,24.10
2022-09-10T13:14:39.776Z,24.10
2022-09-10T13:17:28.156Z,24.10
2022-09-10T13:19:57.935Z,24.00
2022-09-10T13:22:53.458Z,23.70
2022-09-10T13:25:40.058Z,23.40
2022-09-10T13:28:44.117Z,23.30
2022-09-10T13:31:19.599Z,23.20
2022-09-10T13:34:17.681Z,22.90
2022-09-10T13:37:04.330Z,22.90
2022-09-10T13:40:11.627Z,23.00
2022-09-10T13:42:54.855Z,23.00
2022-09-10T13:45:27.193Z,23.00
2022-09-10T13:48:02.285Z,22.90
2022-09-10T13:50:37.959Z,22.80
2022-09-10T13:53:10.798Z,22.80
2022-09-10T13:55:39.733Z,22.80
2022-09-10T13:58:14.048Z,22.80
2022-09-10T14:00:51.344Z,22.80
2022-09-10T14:03:25.447Z,22.80
2022-09-10T14:05:57.665Z,22.80
2022-09-10T14:08:31.515Z,22.60
2022-09-10T14:11:03.799Z,22.50
2022-09-10T14:13:37.023Z,22.40
2022-09-10T14:16:09.344Z,22.30
2022-09-10T14:18:45.137Z,22.30
2022-09-10T14:21:15.120Z,22.50
2022-09-10T14:23:47.871Z,22.60
2022-09-10T14:26:23.615Z,22.70
2022-09-10T14:28:58.926Z,22.70
2022-09-10T14:31:36.118Z,22.80
2022-09-10T14:34:31.567Z,22.90
2022-09-10T14:37:03.019Z,23.00
2022-09-10T14:39:31.502Z,22.90
2022-09-10T14:42:11.041Z,22.90
2022-09-10T14:44:42.814Z,22.80
2022-09-10T14:47:16.276Z,22.80
2022-09-10T14:49:47.247Z,22.80
2022-09-10T14:52:15.811Z,22.80
2022-09-10T14:54:44.023Z,22.70
2022-09-10T14:57:15.362Z,22.70
2022-09-10T14:59:46.319Z,22.70
2022-09-10T15:02:17.968Z,22.60
2022-09-10T15:04:47.600Z,22.60
2022-09-10T15:07:17.938Z,22.60
2022-09-10T15:09:46.885Z,22.50
2022-09-10T15:12:21.323Z,22.60
2022-09-10T15:14:49.779Z,22.50
2022-09-10T15:17:20.906Z,22.50
2022-09-10T15:19:50.624Z,22.60
2022-09-10T15:22:24.842Z,22.60
2022-09-10T15:25:09.224Z,22.60
2022-09-10T15:27:38.140Z,22.70
2022-09-10T15:30:09.251Z,22.60
2022-09-10T15:32:37.621Z,22.70
2022-09-10T15:35:08.763Z,22.90
2022-09-10T15:37:37.754Z,22.90
2022-09-10T15:40:10.111Z,23.00
2022-09-10T15:42:38.403Z,23.00
2022-09-10T15:45:07.295Z,22.90
2022-09-10T15:47:36.284Z,22.90
2022-09-10T15:50:06.858Z,23.00
2022-09-10T15:52:35.118Z,22.90
2022-09-10T15:55:03.357Z,22.80
2022-09-10T15:57:33.787Z,22.80
2022-09-10T16:00:05.327Z,22.60
2022-09-10T16:02:33.976Z,22.50
2022-09-10T16:05:02.227Z,22.60
2022-09-10T16:07:34.281Z,22.50
2022-09-10T16:10:02.594Z,22.60
2022-09-10T16:12:33.496Z,22.60
2022-09-10T16:15:04.491Z,22.60
2022-09-10T16:17:32.665Z,22.60
2022-09-10T16:20:01.019Z,22.60
2022-09-10T16:22:33.575Z,22.50
2022-09-10T16:25:01.768Z,22.50
2022-09-10T16:27:30.024Z,22.50
2022-09-10T16:30:00.357Z,22.50
2022-09-10T16:32:28.788Z,22.60
2022-09-10T16:34:56.979Z,22.50
2022-09-10T16:37:26.233Z,22.60
2022-09-10T16:39:56.830Z,22.60
2022-09-10T16:42:25.193Z,22.50
2022-09-10T16:44:53.364Z,22.50
2022-09-10T16:47:21.819Z,22.40
2022-09-10T16:49:50.122Z,22.20
2022-09-10T16:52:18.528Z,22.20
2022-09-10T16:54:47.367Z,22.30
2022-09-10T16:57:17.149Z,22.30
2022-09-10T16:59:45.485Z,22.40
2022-09-10T17:02:13.688Z,22.40
2022-09-10T17:04:41.973Z,22.40
2022-09-10T17:07:10.240Z,22.40
2022-09-10T17:09:38.565Z,22.40
2022-09-10T17:12:10.596Z,22.40
2022-09-10T17:14:40.561Z,22.40
2022-09-10T17:17:09.880Z,22.40
2022-09-10T17:19:38.291Z,22.30
2022-09-10T17:22:07.032Z,22.30
2022-09-10T17:24:35.249Z,22.30
2022-09-10T17:27:03.527Z,22.30
2022-09-10T17:29:32.986Z,22.20
2022-09-10T17:32:02.708Z,22.20
2022-09-10T17:34:30.876Z,22.20
2022-09-10T17:37:01.701Z,22.10
2022-09-10T17:39:30.713Z,22.10
2022-09-10T17:41:59.000Z,22.00
2022-09-10T17:44:27.502Z,22.00
2022-09-10T17:46:56.292Z,22.00
2022-09-10T17:49:25.844Z,22.00
2022-09-10T17:51:54.431Z,21.90
2022-09-10T17:54:23.537Z,21.80
2022-09-10T17:56:51.777Z,21.80
2022-09-10T17:59:21.257Z,21.70
2022-09-10T18:01:49.470Z,21.70
2022-09-10T18:04:18.922Z,21.60
2022-09-10T18:06:52.187Z,21.60
2022-09-10T18:09:22.119Z,21.60
2022-09-10T18:11:53.057Z,21.50
2022-09-10T18:14:23.908Z,21.40
2022-09-10T18:16:52.404Z,21.40
2022-09-10T18:19:20.652Z,21.40
2022-09-10T18:21:52.820Z,21.40
2022-09-10T18:24:24.171Z,21.40
2022-09-10T18:26:54.220Z,21.40
2022-09-10T18:29:23.804Z,21.40
2022-09-10T18:31:53.636Z,21.40
2022-09-10T18:34:26.970Z,21.30
2022-09-10T18:36:58.955Z,21.30
2022-09-10T18:39:28.851Z,21.30
2022-09-10T18:41:57.176Z,21.20
2022-09-10T18:44:27.561Z,21.10
2022-09-10T18:46:56.063Z,21.10
2022-09-10T18:49:25.528Z,21.00
2022-09-10T18:51:57.956Z,21.00
2022-09-10T18:54:28.741Z,20.90
2022-09-10T18:56:58.187Z,20.90
2022-09-10T18:59:26.932Z,20.90
2022-09-10T19:01:56.045Z,20.80
2022-09-10T19:04:26.796Z,20.70
2022-09-10T19:06:59.341Z,20.70
2022-09-10T19:09:29.049Z,20.60
2022-09-10T19:11:59.307Z,20.60
2022-09-10T19:14:29.460Z,20.50
2022-09-10T19:16:58.796Z,20.50
2022-09-10T19:19:28.669Z,20.60
2022-09-10T19:22:01.196Z,20.60
2022-09-10T19:27:21.095Z,20.40
2022-09-10T19:29:49.956Z,20.40
2022-09-10T19:32:19.923Z,20.40
2022-09-10T19:34:50.769Z,20.40
2022-09-10T19:37:20.963Z,20.50
2022-09-10T19:39:49.411Z,20.40
2022-09-10T19:42:17.930Z,20.40
2022-09-10T19:44:46.187Z,20.30
2022-09-10T19:47:14.421Z,20.40
2022-09-10T19:49:43.225Z,20.40
2022-09-10T19:52:11.858Z,20.40
2022-09-10T19:54:42.259Z,20.50
2022-09-10T19:57:12.724Z,20.50
2022-09-10T19:59:40.997Z,20.50
2022-09-10T20:02:10.621Z,20.50
2022-09-10T20:04:38.849Z,20.50
2022-09-10T20:07:07.335Z,20.50
2022-09-10T20:09:39.674Z,20.50
2022-09-10T20:12:10.838Z,20.50
2022-09-10T20:14:39.228Z,20.40
2022-09-10T20:17:07.524Z,20.40
2022-09-10T20:19:38.178Z,20.40
2022-09-10T20:22:06.445Z,20.40
2022-09-10T20:24:34.791Z,20.40
2022-09-10T20:27:03.097Z,20.30
2022-09-10T20:29:32.918Z,20.30
2022-09-10T20:32:01.269Z,20.20
2022-09-10T20:34:29.582Z,20.20
2022-09-10T20:36:57.764Z,20.10
2022-09-10T20:39:26.077Z,20.10
2022-09-10T20:41:54.701Z,20.10
2022-09-10T20:44:23.160Z,20.10
2022-09-10T20:46:52.866Z,20.10
2022-09-10T20:49:23.459Z,20.10
2022-09-10T20:51:54.119Z,20.10
2022-09-10T20:54:22.343Z,20.10
2022-09-10T20:56:50.595Z,20.20
2022-09-10T20:59:21.512Z,20.10
2022-09-10T21:01:53.023Z,20.20
2022-09-10T21:04:22.073Z,20.10
2022-09-10T21:06:50.341Z,20.20
2022-09-10T21:09:21.787Z,20.20
2022-09-10T21:11:50.849Z,20.10
2022-09-10T21:14:21.390Z,20.10
2022-09-10T21:16:49.575Z,20.10
2022-09-10T21:19:19.592Z,20.00
2022-09-10T21:21:49.947Z,20.00
2022-09-10T21:24:22.483Z,20.00
2022-09-10T21:26:51.179Z,20.00
2022-09-10T21:29:21.344Z,20.10
2022-09-10T21:31:50.814Z,20.10
2022-09-10T21:34:20.751Z,20.00
2022-09-10T21:36:48.955Z,20.00
2022-09-10T21:39:18.894Z,19.90
2022-09-10T21:41:48.646Z,19.90
2022-09-10T21:44:18.562Z,19.80
2022-09-10T21:46:48.613Z,19.80
2022-09-10T21:49:17.223Z,19.80
2022-09-10T21:51:46.872Z,19.90
2022-09-10T21:54:20.809Z,19.90
2022-09-10T21:56:49.480Z,19.80
2022-09-10T21:59:18.046Z,19.80
2022-09-10T22:01:47.530Z,19.80
2022-09-10T22:04:22.442Z,19.80
2022-09-10T22:06:54.492Z,19.80
2022-09-10T22:09:26.373Z,19.80
2022-09-10T22:11:59.235Z,19.80
2022-09-10T22:14:27.505Z,19.80
2022-09-10T22:16:55.963Z,19.80
2022-09-10T22:19:25.941Z,19.80
2022-09-10T22:21:56.914Z,19.80
2022-09-10T22:24:26.146Z,19.80
2022-09-10T22:26:57.056Z,19.80
2022-09-10T22:29:25.334Z,19.80
2022-09-10T22:31:55.781Z,19.90
2022-09-10T22:34:24.170Z,19.80
2022-09-10T22:36:52.409Z,19.80
2022-09-10T22:39:23.225Z,19.80
2022-09-10T22:41:52.426Z,19.80
2022-09-10T22:44:34.674Z,19.80
2022-09-10T22:47:18.628Z,19.80
2022-09-10T22:50:01.100Z,19.90
2022-09-10T22:55:17.825Z,19.80
2022-09-10T22:57:46.067Z,19.70
2022-09-10T23:00:15.498Z,19.70
2022-09-10T23:02:47.850Z,19.60
2022-09-10T23:05:16.303Z,19.60
2022-09-10T23:07:44.584Z,19.50
2022-09-10T23:10:21.313Z,19.50
2022-09-10T23:12:52.432Z,19.40
2022-09-10T23:15:20.791Z,19.40
2022-09-10T23:17:49.090Z,19.30
2022-09-10T23:20:18.049Z,19.30
2022-09-10T23:22:48.953Z,19.20
2022-09-10T23:25:19.565Z,19.20
2022-09-10T23:27:51.892Z,19.20
2022-09-10T23:30:20.353Z,19.20
2022-09-10T23:32:48.963Z,19.20
2022-09-10T23:35:17.323Z,19.20
2022-09-10T23:37:46.731Z,19.20
2022-09-10T23:40:15.542Z,19.20
2022-09-10T23:42:44.003Z,19.20
2022-09-10T23:45:14.026Z,19.20
2022-09-10T23:47:42.350Z,19.10
2022-09-10T23:50:10.878Z,19.10
2022-09-10T23:52:39.158Z,19.10
2022-09-10T23:55:09.961Z,19.10
2022-09-10T23:57:39.082Z,19.10
